Time;durP1;ratioP1;P1;durP2;ratioP2;P2;SDS_P1;SDS_P2;PMS_P1;PMS_P2;Temp;Humidity;BMP_temperature;BMP_pressure;BME280_temperature;BME280_humidity;BME280_pressure;Samples;Min_cycle;Max_cycle;Signal;HPM_P1;HPM_P2
2023/01/12 00:01:40;;;;;;;;;;;;;;;2.02;99.97;98419.48;106561;1275;124512;-75
2023/01/12 00:04:07;;;;;;;;;;;;;;;2.06;99.92;98430.90;106685;1282;23024;-74
2023/01/12 00:06:34;;;;;;;;;;;;;;;2.10;99.90;98437.67;106425;1263;125017;-74
2023/01/12 00:09:02;;;;;;;;;;;;;;;2.12;99.53;98439.39;106569;1280;22613;-74
2023/01/12 00:11:29;;;;;;;;;;;;;;;2.12;99.36;98439.48;106675;1280;24200;-73
2023/01/12 00:13:56;;;;;;;;;;;;;;;2.13;99.39;98444.20;106486;1269;124384;-76
2023/01/12 00:16:42;;;;;;;;;;;;;;;2.15;99.47;98451.89;106523;1265;25198;-73
2023/01/12 00:19:10;;;;;;;;;;;;;;;2.18;99.97;98456.81;106440;1281;124893;-74
2023/01/12 00:24:21;;;;;;;;;;;;;;;2.30;100.00;98458.80;106443;1281;124623;-73
2023/01/12 00:26:48;;;;;;;;;;;;;;;2.38;100.00;98464.98;106715;1262;22509;-73
2023/01/12 00:29:16;;;;;;;;;;;;;;;2.45;100.00;98466.51;106635;1280;26484;-74
2023/01/12 00:31:43;;;;;;;;;;;;;;;2.54;100.00;98468.31;106491;1281;125575;-73
2023/01/12 00:34:09;;;;;;;;;;;;;;;2.64;100.00;98467.42;106542;1281;25146;-73
2023/01/12 00:36:36;;;;;;;;;;;;;;;2.74;100.00;98462.27;106647;1264;124870;-74
2023/01/12 00:39:03;;;;;;;;;;;;;;;2.83;100.00;98465.91;107680;1275;22547;-74
2023/01/12 00:47:04;;;;;;;;;;;;;;;3.06;100.00;98480.08;106675;1277;25405;-73
2023/01/12 00:49:31;;;;;;;;;;;;;;;3.09;99.92;98483.38;106589;1275;124476;-73
2023/01/12 00:51:57;;;;;;;;;;;;;;;3.11;99.65;98486.23;106574;1279;22534;-73
2023/01/12 00:54:24;;;;;;;;;;;;;;;3.11;99.37;98483.13;106467;1281;125396;-74
2023/01/12 00:56:51;;;;;;;;;;;;;;;3.12;99.15;98486.66;106643;1265;22514;-74
2023/01/12 00:59:18;;;;;;;;;;;;;;;3.12;99.14;98486.61;106526;1281;24349;-74
2023/01/12 01:01:44;;;;;;;;;;;;;;;3.12;98.70;98487.52;106397;1281;124383;-73
2023/01/12 01:04:11;;;;;;;;;;;;;;;3.13;99.08;98489.55;106475;1281;22595;-73
2023/01/12 01:06:38;;;;;;;;;;;;;;;3.12;98.67;98486.73;106398;1275;124455;-73
2023/01/12 01:09:05;;;;;;;;;;;;;;;3.12;98.52;98490.05;106671;1269;22514;-74
2023/01/12 01:11:33;;;;;;;;;;;;;;;3.11;98.73;98493.19;107245;1272;23317;-74
2023/01/12 01:14:00;;;;;;;;;;;;;;;3.12;98.68;98499.94;106675;1281;124368;-74
2023/01/12 01:16:28;;;;;;;;;;;;;;;3.11;98.30;98495.14;106642;1273;24279;-73
2023/01/12 01:18:56;;;;;;;;;;;;;;;3.10;97.94;98494.92;106674;1271;124343;-73
2023/01/12 01:21:22;;;;;;;;;;;;;;;3.09;97.89;98491.30;106777;1275;26513;-73
2023/01/12 01:23:49;;;;;;;;;;;;;;;3.09;97.63;98491.10;106666;1277;23957;-73
2023/01/12 01:26:17;;;;;;;;;;;;;;;3.09;97.25;98484.84;106754;1274;124326;-73
2023/01/12 01:28:44;;;;;;;;;;;;;;;3.08;97.08;98488.08;106672;1263;22578;-73
2023/01/12 01:31:13;;;;;;;;;;;;;;;3.07;96.82;98493.23;106570;1281;125784;-73
2023/01/12 01:33:40;;;;;;;;;;;;;;;3.07;97.07;98496.59;106655;1281;22518;-73
2023/01/12 01:36:07;;;;;;;;;;;;;;;3.08;97.13;98499.50;107579;1279;124602;-74
2023/01/12 01:38:34;;;;;;;;;;;;;;;3.09;97.06;98503.39;108517;1263;219476;-74
2023/01/12 01:41:03;;;;;;;;;;;;;;;3.09;97.14;98503.81;107437;1276;22546;-73
2023/01/12 01:43:49;;;;;;;;;;;;;;;3.10;96.95;98504.69;107285;1282;124356;-73
2023/01/12 01:46:21;;;;;;;;;;;;;;;3.10;96.76;98503.07;106530;1282;22945;-73
2023/01/12 01:48:48;;;;;;;;;;;;;;;3.09;96.62;98498.30;106526;1270;124470;-73
2023/01/12 01:51:16;;;;;;;;;;;;;;;3.08;96.62;98492.55;106650;1280;22501;-73
2023/01/12 01:53:44;;;;;;;;;;;;;;;3.07;96.66;98490.55;106661;1280;23906;-73
2023/01/12 01:56:13;;;;;;;;;;;;;;;3.07;96.65;98488.06;106524;1280;124788;-73
2023/01/12 01:58:42;;;;;;;;;;;;;;;3.05;96.78;98485.33;106588;1263;22527;-73
2023/01/12 02:01:09;;;;;;;;;;;;;;;3.04;96.54;98487.50;106349;1281;125403;-73
2023/01/12 02:03:37;;;;;;;;;;;;;;;3.01;96.64;98486.45;106601;1281;25773;-73
2023/01/12 02:06:05;;;;;;;;;;;;;;;3.00;96.71;98489.80;106659;1278;24264;-73
2023/01/12 02:08:35;;;;;;;;;;;;;;;2.99;96.90;98494.58;106517;1281;22611;-73
2023/01/12 02:11:02;;;;;;;;;;;;;;;2.98;96.93;98494.30;106577;1281;23368;-73
2023/01/12 02:16:24;;;;;;;;;;;;;;;2.96;96.87;98485.58;106609;1280;22504;-73
2023/01/12 02:18:57;;;;;;;;;;;;;;;2.94;96.62;98484.77;106519;1262;124481;-73
2023/01/12 02:21:23;;;;;;;;;;;;;;;2.92;96.94;98480.02;106562;1281;25215;-73
2023/01/12 02:24:05;;;;;;;;;;;;;;;2.92;96.93;98478.11;106557;1281;27557;-73
2023/01/12 02:26:38;;;;;;;;;;;;;;;2.91;96.85;98485.00;106879;1275;124583;-74
2023/01/12 02:29:11;;;;;;;;;;;;;;;2.90;96.67;98488.03;106536;1263;22504;-73
2023/01/12 02:31:57;;;;;;;;;;;;;;;2.89;96.78;98493.69;106577;1280;124594;-73
2023/01/12 02:34:32;;;;;;;;;;;;;;;2.91;96.69;98495.48;106647;1280;22524;-73
2023/01/12 02:37:06;;;;;;;;;;;;;;;2.92;96.95;98497.96;107230;1280;125020;-74
2023/01/12 02:39:38;;;;;;;;;;;;;;;2.94;97.06;98501.48;106565;1270;22530;-73
2023/01/12 02:45:14;;;;;;;;;;;;;;;2.99;97.36;98506.75;106608;1282;24923;-73
2023/01/12 02:47:55;;;;;;;;;;;;;;;3.01;97.25;98505.04;106601;1281;22527;-73
2023/01/12 02:50:42;;;;;;;;;;;;;;;3.02;97.21;98506.66;106492;1274;124545;-73
2023/01/12 02:53:14;;;;;;;;;;;;;;;3.04;97.18;98509.07;106650;1279;24446;-73
2023/01/12 02:55:42;;;;;;;;;;;;;;;3.07;97.06;98510.12;106509;1281;124915;-73
2023/01/12 02:58:11;;;;;;;;;;;;;;;3.08;97.14;98509.02;106625;1281;22519;-73
2023/01/12 03:00:40;;;;;;;;;;;;;;;3.10;97.19;98511.48;106479;1264;125405;-73
2023/01/12 03:03:07;;;;;;;;;;;;;;;3.12;97.16;98511.73;106831;1279;25220;-73
2023/01/12 03:05:37;;;;;;;;;;;;;;;3.12;96.92;98512.48;106590;1282;23167;-73
2023/01/12 03:08:04;;;;;;;;;;;;;;;3.10;96.67;98518.35;106450;1282;124525;-73
2023/01/12 03:10:31;;;;;;;;;;;;;;;3.08;96.80;98524.10;106537;1264;22524;-73
2023/01/12 03:13:00;;;;;;;;;;;;;;;3.08;96.98;98524.80;106585;1279;124246;-73
2023/01/12 03:15:30;;;;;;;;;;;;;;;3.08;97.21;98524.25;106753;1279;25309;-74
2023/01/12 03:17:58;;;;;;;;;;;;;;;3.10;97.23;98524.34;106554;1281;22515;-73
2023/01/12 03:20:32;;;;;;;;;;;;;;;3.13;97.35;98520.85;106414;1275;124405;-73
2023/01/12 03:23:01;;;;;;;;;;;;;;;3.14;97.57;98509.81;106453;1283;22532;-73
2023/01/12 03:25:31;;;;;;;;;;;;;;;3.16;97.45;98508.46;106709;1282;124877;-74
2023/01/12 03:27:58;;;;;;;;;;;;;;;3.19;97.65;98506.58;106521;1282;22516;-73
2023/01/12 03:30:37;;;;;;;;;;;;;;;3.19;97.25;98506.73;106904;1276;125012;-73
2023/01/12 03:33:04;;;;;;;;;;;;;;;3.19;97.13;98512.25;106936;1274;22512;-73
2023/01/12 03:35:34;;;;;;;;;;;;;;;3.21;97.40;98514.40;106907;1273;22540;-74
2023/01/12 03:38:30;;;;;;;;;;;;;;;3.23;97.55;98513.89;106793;1279;23206;-74
2023/01/12 03:41:04;;;;;;;;;;;;;;;3.25;97.58;98513.65;106552;1280;22527;-73
2023/01/12 03:43:40;;;;;;;;;;;;;;;3.28;97.68;98512.77;106479;1280;22560;-73
2023/01/12 03:46:15;;;;;;;;;;;;;;;3.30;97.41;98514.67;106693;1276;22575;-73
2023/01/12 03:48:45;;;;;;;;;;;;;;;3.31;97.34;98519.44;106634;1277;22522;-73
2023/01/12 03:51:12;;;;;;;;;;;;;;;3.32;97.32;98523.06;106535;1280;22707;-73
2023/01/12 03:53:41;;;;;;;;;;;;;;;3.34;97.65;98520.63;107377;1273;23300;-74
2023/01/12 03:56:09;;;;;;;;;;;;;;;3.37;97.56;98526.36;106728;1275;24327;-74
2023/01/12 03:58:36;;;;;;;;;;;;;;;3.41;97.73;98524.70;106554;1273;25269;-73
2023/01/12 04:01:03;;;;;;;;;;;;;;;3.44;97.68;98527.56;106456;1266;22655;-73
2023/01/12 04:03:30;;;;;;;;;;;;;;;3.46;97.37;98530.06;106585;1277;24209;-73
2023/01/12 04:05:56;;;;;;;;;;;;;;;3.49;97.54;98531.61;106577;1276;25321;-73
2023/01/12 04:08:23;;;;;;;;;;;;;;;3.51;97.45;98531.34;106410;1277;24539;-74
2023/01/12 04:10:50;;;;;;;;;;;;;;;3.53;97.40;98532.71;106519;1257;25356;-73
2023/01/12 04:13:17;;;;;;;;;;;;;;;3.55;97.43;98537.23;106967;1267;22520;-74
2023/01/12 04:15:45;;;;;;;;;;;;;;;3.55;97.03;98534.80;106600;1276;22619;-74
2023/01/12 04:18:12;;;;;;;;;;;;;;;3.54;96.81;98533.64;106633;1279;25489;-73
2023/01/12 04:20:39;;;;;;;;;;;;;;;3.54;96.77;98529.36;106520;1281;22535;-74
2023/01/12 04:23:06;;;;;;;;;;;;;;;3.54;97.11;98529.61;106480;1282;22521;-73
2023/01/12 04:25:33;;;;;;;;;;;;;;;3.56;97.25;98531.04;106474;1282;22638;-73
2023/01/12 04:28:03;;;;;;;;;;;;;;;3.57;97.19;98533.81;106599;1282;23034;-73
2023/01/12 04:30:31;;;;;;;;;;;;;;;3.57;97.17;98532.83;106451;1282;23277;-73
2023/01/12 04:32:59;;;;;;;;;;;;;;;3.57;97.05;98531.59;106701;1263;22628;-74
2023/01/12 04:35:26;;;;;;;;;;;;;;;3.58;96.82;98531.14;106810;1273;22571;-74
2023/01/12 04:37:53;;;;;;;;;;;;;;;3.58;96.95;98532.88;106528;1273;22510;-73
2023/01/12 04:40:20;;;;;;;;;;;;;;;3.59;96.84;98530.44;106538;1281;22567;-74
2023/01/12 04:43:00;;;;;;;;;;;;;;;3.58;96.84;98533.95;106426;1280;24343;-74
2023/01/12 04:45:27;;;;;;;;;;;;;;;3.58;96.65;98534.66;106433;1280;25353;-74
2023/01/12 04:47:54;;;;;;;;;;;;;;;3.58;96.58;98529.98;106387;1282;25251;-73
2023/01/12 04:50:21;;;;;;;;;;;;;;;3.56;96.64;98530.90;106395;1283;22522;-73
2023/01/12 04:52:48;;;;;;;;;;;;;;;3.55;96.56;98530.83;106725;1262;24045;-73
2023/01/12 04:55:15;;;;;;;;;;;;;;;3.54;96.68;98534.76;106576;1280;23115;-73
2023/01/12 04:57:41;;;;;;;;;;;;;;;3.53;96.51;98537.02;106629;1266;22567;-73
2023/01/12 05:00:08;;;;;;;;;;;;;;;3.51;96.49;98535.11;106513;1281;22511;-73
2023/01/12 05:02:35;;;;;;;;;;;;;;;3.50;96.60;98535.48;106505;1264;22549;-73
2023/01/12 05:05:04;;;;;;;;;;;;;;;3.49;96.87;98535.14;106468;1275;22547;-74
2023/01/12 05:07:30;;;;;;;;;;;;;;;3.48;96.84;98533.59;106490;1282;24360;-73
2023/01/12 05:12:43;;;;;;;;;;;;;;;3.47;97.01;98537.85;106399;1281;22649;-73
2023/01/12 05:15:10;;;;;;;;;;;;;;;3.46;96.80;98535.95;106409;1281;25362;-73
2023/01/12 05:17:37;;;;;;;;;;;;;;;3.45;97.06;98539.98;106422;1281;25388;-73
2023/01/12 05:20:04;;;;;;;;;;;;;;;3.45;97.22;98540.61;106407;1281;25259;-73
2023/01/12 05:22:30;;;;;;;;;;;;;;;3.44;97.29;98540.13;106596;1272;25391;-74
2023/01/12 05:24:57;;;;;;;;;;;;;;;3.44;97.28;98543.97;106339;1282;22706;-74
2023/01/12 05:27:24;;;;;;;;;;;;;;;3.44;97.50;98545.70;106366;1282;25335;-73
2023/01/12 05:29:51;;;;;;;;;;;;;;;3.44;97.55;98542.60;106364;1282;25355;-73
2023/01/12 05:32:18;;;;;;;;;;;;;;;3.45;97.58;98541.32;106380;1260;25393;-74
2023/01/12 05:34:45;;;;;;;;;;;;;;;3.46;97.65;98543.89;106406;1281;25497;-73
2023/01/12 05:37:12;;;;;;;;;;;;;;;3.47;97.72;98543.04;106424;1281;22572;-73
2023/01/12 05:39:38;;;;;;;;;;;;;;;3.46;97.72;98544.05;106390;1281;24173;-73
2023/01/12 05:44:51;;;;;;;;;;;;;;;3.46;97.92;98546.84;106393;1282;25329;-73
2023/01/12 05:47:18;;;;;;;;;;;;;;;3.46;97.79;98550.11;106348;1282;22563;-73
2023/01/12 05:49:44;;;;;;;;;;;;;;;3.44;98.05;98552.49;106343;1282;22522;-73
2023/01/12 05:52:11;;;;;;;;;;;;;;;3.44;98.18;98552.38;106393;1282;25311;-73
2023/01/12 05:54:38;;;;;;;;;;;;;;;3.43;98.36;98552.63;106400;1263;22518;-73
2023/01/12 05:57:05;;;;;;;;;;;;;;;3.43;98.84;98552.78;106415;1281;22515;-73
2023/01/12 05:59:32;;;;;;;;;;;;;;;3.44;99.10;98550.72;106442;1281;22542;-73
2023/01/12 06:01:59;;;;;;;;;;;;;;;3.44;99.38;98543.52;106700;1273;22543;-74
2023/01/12 06:04:30;;;;;;;;;;;;;;;3.46;99.31;98545.64;106531;1263;24232;-73
2023/01/12 06:06:57;;;;;;;;;;;;;;;3.48;99.66;98542.75;106445;1281;26846;-73
2023/01/12 06:09:23;;;;;;;;;;;;;;;3.49;99.62;98546.61;106411;1281;22516;-73
2023/01/12 06:14:36;;;;;;;;;;;;;;;3.52;99.98;98544.80;106414;1281;25353;-74
2023/01/12 06:17:09;;;;;;;;;;;;;;;3.54;99.77;98542.09;106420;1282;22523;-73
2023/01/12 06:19:49;;;;;;;;;;;;;;;3.55;99.78;98541.77;106177;1282;22516;-73
2023/01/12 06:22:18;;;;;;;;;;;;;;;3.56;99.79;98543.59;106360;1267;22655;-73
2023/01/12 06:24:47;;;;;;;;;;;;;;;3.57;99.63;98544.34;106286;1266;22943;-73
2023/01/12 06:27:15;;;;;;;;;;;;;;;3.57;99.92;98546.17;106510;1281;25500;-73
2023/01/12 06:29:42;;;;;;;;;;;;;;;3.58;99.88;98550.73;106622;1281;22514;-73
2023/01/12 06:32:08;;;;;;;;;;;;;;;3.58;99.94;98551.39;106438;1281;22524;-73
2023/01/12 06:34:36;;;;;;;;;;;;;;;3.60;99.92;98552.85;106406;1281;24251;-74
2023/01/12 06:37:03;;;;;;;;;;;;;;;3.61;99.98;98556.60;106477;1264;23555;-74
2023/01/12 06:39:30;;;;;;;;;;;;;;;3.62;99.98;98563.64;106373;1282;25389;-73
2023/01/12 06:44:43;;;;;;;;;;;;;;;3.67;100.00;98571.66;106825;1273;23419;-74
2023/01/12 06:47:09;;;;;;;;;;;;;;;3.69;100.00;98572.09;106402;1263;25278;-73
2023/01/12 06:49:36;;;;;;;;;;;;;;;3.70;99.95;98577.15;106416;1281;124451;-74
2023/01/12 06:52:03;;;;;;;;;;;;;;;3.72;99.90;98583.98;107054;1272;25379;-74
2023/01/12 06:54:30;;;;;;;;;;;;;;;3.73;99.95;98588.35;106511;1281;125160;-74
2023/01/12 06:56:56;;;;;;;;;;;;;;;3.73;99.88;98594.77;106680;1280;22557;-74
2023/01/12 06:59:23;;;;;;;;;;;;;;;3.74;99.94;98594.41;106444;1281;22642;-73
2023/01/12 07:01:50;;;;;;;;;;;;;;;3.75;99.93;98596.30;106762;1273;23410;-74
2023/01/12 07:04:17;;;;;;;;;;;;;;;3.75;99.92;98601.27;106443;1280;25393;-73
2023/01/12 07:06:44;;;;;;;;;;;;;;;3.76;99.82;98604.73;107540;1262;22500;-74
2023/01/12 07:09:11;;;;;;;;;;;;;;;3.77;99.94;98611.49;106608;1279;25223;-74
2023/01/12 07:11:37;;;;;;;;;;;;;;;3.78;99.84;98613.30;106512;1280;25300;-73
2023/01/12 07:14:04;;;;;;;;;;;;;;;3.79;99.87;98613.35;106425;1281;25214;-74
2023/01/12 07:16:32;;;;;;;;;;;;;;;3.79;99.81;98614.22;106412;1263;22508;-73
2023/01/12 07:18:59;;;;;;;;;;;;;;;3.82;99.81;98619.33;106403;1281;22515;-74
2023/01/12 07:21:25;;;;;;;;;;;;;;;3.83;99.91;98621.45;106522;1281;25495;-74
2023/01/12 07:23:52;;;;;;;;;;;;;;;3.85;99.79;98618.76;106487;1281;24203;-74
2023/01/12 07:26:19;;;;;;;;;;;;;;;3.86;99.72;98615.36;106555;1281;22522;-74
2023/01/12 07:28:45;;;;;;;;;;;;;;;3.90;99.84;98620.63;106954;1277;26513;-73
2023/01/12 07:31:12;;;;;;;;;;;;;;;3.91;99.71;98620.88;106604;1280;22538;-74
2023/01/12 07:33:39;;;;;;;;;;;;;;;3.92;99.50;98622.41;106695;1280;25398;-74
2023/01/12 07:36:06;;;;;;;;;;;;;;;3.94;99.59;98620.23;106696;1257;25380;-74
2023/01/12 07:38:33;;;;;;;;;;;;;;;3.97;99.62;98616.67;106573;1281;25217;-74
2023/01/12 07:41:01;;;;;;;;;;;;;;;4.01;99.70;98621.38;107824;1273;22521;-72
2023/01/12 07:43:28;;;;;;;;;;;;;;;4.16;100.00;98618.89;106665;1279;22949;-74
2023/01/12 07:45:55;;;;;;;;;;;;;;;4.31;100.00;98622.58;107128;1275;22554;-73
2023/01/12 07:48:23;;;;;;;;;;;;;;;4.37;99.28;98626.55;106534;1262;22528;-74
2023/01/12 07:50:51;;;;;;;;;;;;;;;4.36;98.34;98627.16;106739;1274;24381;-73
2023/01/12 07:53:18;;;;;;;;;;;;;;;4.36;98.18;98631.80;106886;1273;25407;-73
2023/01/12 07:55:45;;;;;;;;;;;;;;;4.36;97.89;98634.58;106661;1281;25332;-73
2023/01/12 07:58:12;;;;;;;;;;;;;;;4.36;97.91;98635.78;107101;1263;22514;-73
2023/01/12 08:00:39;;;;;;;;;;;;;;;4.38;97.96;98641.69;107704;1275;24242;-74
2023/01/12 08:03:10;;;;;;;;;;;;;;;4.38;97.77;98640.02;107230;1278;25457;-74
2023/01/12 08:05:37;;;;;;;;;;;;;;;4.39;97.76;98633.80;107169;1275;25435;-73
2023/01/12 08:08:04;;;;;;;;;;;;;;;4.40;97.51;98633.89;107083;1263;23412;-74
2023/01/12 08:10:32;;;;;;;;;;;;;;;4.37;97.21;98629.94;107397;1270;22552;-74
2023/01/12 08:12:58;;;;;;;;;;;;;;;4.40;97.07;98631.98;106834;1281;124865;-73
2023/01/12 08:15:26;;;;;;;;;;;;;;;4.40;97.22;98628.88;106989;1275;24254;-74
2023/01/12 08:17:53;;;;;;;;;;;;;;;4.42;97.18;98633.69;106742;1273;124583;-73
2023/01/12 08:20:26;;;;;;;;;;;;;;;4.44;97.19;98630.48;107104;1275;22534;-73
2023/01/12 08:22:54;;;;;;;;;;;;;;;4.45;97.10;98630.52;106640;1281;23876;-74
2023/01/12 08:25:27;;;;;;;;;;;;;;;4.45;96.88;98629.27;106902;1279;126707;-73
2023/01/12 08:27:56;;;;;;;;;;;;;;;4.46;96.86;98631.38;106602;1278;22508;-73
2023/01/12 08:30:24;;;;;;;;;;;;;;;4.46;96.70;98633.84;108501;1268;124784;-74
2023/01/12 08:32:51;;;;;;;;;;;;;;;4.46;96.59;98636.03;107420;1277;22522;-73
2023/01/12 08:35:21;;;;;;;;;;;;;;;4.46;96.60;98638.81;106581;1276;22531;-73
2023/01/12 08:37:48;;;;;;;;;;;;;;;4.46;96.43;98636.71;106690;1280;22530;-73
2023/01/12 08:40:15;;;;;;;;;;;;;;;4.46;96.34;98631.81;106574;1282;24993;-74
2023/01/12 08:42:42;;;;;;;;;;;;;;;4.46;96.48;98633.27;106600;1280;22510;-73
2023/01/12 08:45:09;;;;;;;;;;;;;;;4.46;96.55;98638.29;106495;1281;124337;-73
2023/01/12 08:47:36;;;;;;;;;;;;;;;4.45;96.27;98636.95;106531;1260;24273;-73
2023/01/12 08:50:03;;;;;;;;;;;;;;;4.46;96.41;98646.08;106600;1275;124473;-73
2023/01/12 08:52:31;;;;;;;;;;;;;;;4.45;96.41;98647.73;106474;1279;25419;-73
2023/01/12 08:54:58;;;;;;;;;;;;;;;4.44;96.15;98645.36;106476;1282;23897;-73
2023/01/12 08:57:25;;;;;;;;;;;;;;;4.45;96.32;98640.98;106761;1260;22540;-74
2023/01/12 08:59:52;;;;;;;;;;;;;;;4.45;96.47;98645.83;107707;1266;22532;-74
2023/01/12 09:02:18;;;;;;;;;;;;;;;4.45;96.27;98644.95;107769;1266;22753;-73
2023/01/12 09:04:45;;;;;;;;;;;;;;;4.45;96.25;98641.30;106633;1275;125123;-74
2023/01/12 09:07:12;;;;;;;;;;;;;;;4.45;96.14;98642.76;107174;1266;25315;-74
2023/01/12 09:09:39;;;;;;;;;;;;;;;4.45;95.91;98641.14;107666;1275;22505;-73
2023/01/12 09:12:06;;;;;;;;;;;;;;;4.43;95.65;98643.41;106911;1270;125819;-74
2023/01/12 09:14:37;;;;;;;;;;;;;;;4.40;95.55;98648.79;106898;1273;22967;-73
2023/01/12 09:17:05;;;;;;;;;;;;;;;4.40;95.78;98650.40;106789;1275;124878;-73
2023/01/12 09:19:32;;;;;;;;;;;;;;;4.43;96.02;98651.21;107257;1263;22646;-73
2023/01/12 09:21:59;;;;;;;;;;;;;;;4.44;95.70;98643.88;106663;1275;22517;-73
2023/01/12 09:24:27;;;;;;;;;;;;;;;4.45;95.70;98641.38;107201;1275;124279;-74
2023/01/12 09:26:58;;;;;;;;;;;;;;;4.49;95.94;98642.27;108097;1273;22546;-74
2023/01/12 09:29:26;;;;;;;;;;;;;;;4.53;95.62;98643.86;107823;1260;124616;-73
2023/01/12 09:31:56;;;;;;;;;;;;;;;4.56;95.63;98634.78;107168;1272;25316;-74
2023/01/12 09:34:23;;;;;;;;;;;;;;;4.62;95.71;98632.48;106816;1264;22504;-73
2023/01/12 09:36:51;;;;;;;;;;;;;;;4.69;95.72;98624.16;107325;1272;124575;-74
2023/01/12 09:39:18;;;;;;;;;;;;;;;4.76;95.70;98623.89;106874;1273;22585;-73
2023/01/12 09:47:28;;;;;;;;;;;;;;;5.02;95.41;98614.94;106588;1281;124662;-74
2023/01/12 09:50:10;;;;;;;;;;;;;;;5.09;94.97;98607.61;106993;1260;24215;-74
2023/01/12 09:52:40;;;;;;;;;;;;;;;5.17;94.68;98599.39;106680;1269;22514;-74
2023/01/12 09:55:26;;;;;;;;;;;;;;;5.24;94.27;98591.95;106713;1279;22512;-74
2023/01/12 09:57:56;;;;;;;;;;;;;;;5.31;94.12;98590.47;106986;1276;22573;-74
2023/01/12 10:00:23;;;;;;;;;;;;;;;5.39;94.07;98591.63;106500;1276;124826;-74
2023/01/12 10:02:59;;;;;;;;;;;;;;;5.46;94.05;98589.05;106587;1281;23281;-74
2023/01/12 10:05:46;;;;;;;;;;;;;;;5.50;93.41;98587.92;106465;1281;124504;-74
2023/01/12 10:08:21;;;;;;;;;;;;;;;5.57;93.49;98584.09;108096;1275;22544;-74
2023/01/12 10:10:59;;;;;;;;;;;;;;;5.65;93.34;98578.02;106687;1260;124669;-74
2023/01/12 10:13:48;;;;;;;;;;;;;;;5.73;93.19;98566.27;106776;1266;23452;-74
2023/01/12 10:16:30;;;;;;;;;;;;;;;5.81;92.94;98561.41;106542;1280;22508;-74
2023/01/12 10:19:01;;;;;;;;;;;;;;;5.90;92.80;98565.48;106639;1273;124675;-74
2023/01/12 10:21:28;;;;;;;;;;;;;;;5.99;92.23;98569.20;106609;1281;25376;-74
2023/01/12 10:23:55;;;;;;;;;;;;;;;6.08;91.74;98568.63;106892;1273;125794;-74
2023/01/12 10:26:23;;;;;;;;;;;;;;;6.17;91.87;98569.72;106763;1273;22637;-74
2023/01/12 10:28:52;;;;;;;;;;;;;;;6.26;91.05;98566.94;106589;1275;124792;-74
2023/01/12 10:31:21;;;;;;;;;;;;;;;6.35;90.73;98565.33;106701;1264;22525;-74
2023/01/12 10:34:06;;;;;;;;;;;;;;;6.42;90.09;98563.92;106638;1273;22535;-74
2023/01/12 10:36:43;;;;;;;;;;;;;;;6.52;89.99;98565.23;106544;1273;125593;-74
2023/01/12 10:39:28;;;;;;;;;;;;;;;6.60;89.72;98563.02;106662;1276;24186;-74
2023/01/12 10:43:17;;;;;;;;;;;;;;;6.70;88.88;98559.20;106555;1264;126824;-74
2023/01/12 10:45:11;;;;;;;;;;;;;;;6.79;88.51;98551.72;106653;1270;22662;-74
2023/01/12 10:47:38;;;;;;;;;;;;;;;6.87;87.67;98545.50;106463;1278;124666;-74
2023/01/12 10:50:20;;;;;;;;;;;;;;;6.94;86.47;98541.77;106636;1273;25291;-74
2023/01/12 10:52:49;;;;;;;;;;;;;;;7.02;86.45;98539.52;106852;1275;124779;-74
2023/01/12 10:55:17;;;;;;;;;;;;;;;7.11;85.76;98544.00;106719;1280;22501;-74
2023/01/12 10:57:45;;;;;;;;;;;;;;;7.18;85.55;98539.30;106617;1273;22507;-74
2023/01/12 11:00:19;;;;;;;;;;;;;;;7.26;85.35;98541.83;106875;1257;124576;-74
2023/01/12 11:02:45;;;;;;;;;;;;;;;7.33;85.26;98534.80;107083;1273;22533;-74
2023/01/12 11:05:45;;;;;;;;;;;;;;;7.41;85.06;98525.11;106595;1281;124818;-74
2023/01/12 11:08:24;;;;;;;;;;;;;;;7.50;84.03;98520.97;106614;1281;22519;-74
2023/01/12 11:10:51;;;;;;;;;;;;;;;7.57;84.06;98515.79;106034;1269;124676;-74
2023/01/12 11:13:36;;;;;;;;;;;;;;;7.65;83.67;98512.98;106335;1287;22528;-74
2023/01/12 11:16:20;;;;;;;;;;;;;;;7.74;82.56;98511.19;106209;1287;22552;-74
2023/01/12 11:18:54;;;;;;;;;;;;;;;7.82;81.67;98511.48;106078;1287;124034;-74
2023/01/12 11:21:24;;;;;;;;;;;;;;;7.87;81.14;98505.20;106863;1276;24389;-74
2023/01/12 11:23:57;;;;;;;;;;;;;;;7.88;79.35;98498.76;106132;1282;123831;-74
2023/01/12 11:26:30;;;;;;;;;;;;;;;7.89;78.39;98494.34;106565;1281;22534;-74
2023/01/12 11:29:06;;;;;;;;;;;;;;;7.90;76.87;98482.34;106033;1282;123941;-74
2023/01/12 11:31:38;;;;;;;;;;;;;;;7.93;76.63;98479.80;106500;1282;25468;-74
2023/01/12 11:34:15;;;;;;;;;;;;;;;7.94;75.32;98477.28;106313;1286;25221;-74
2023/01/12 11:36:46;;;;;;;;;;;;;;;7.96;75.09;98478.75;106409;1273;124757;-74
2023/01/12 11:39:19;;;;;;;;;;;;;;;7.97;75.33;98480.30;106111;1288;23935;-74
2023/01/12 11:44:56;;;;;;;;;;;;;;;8.03;74.53;98484.81;106674;1275;22540;-74
2023/01/12 11:47:25;;;;;;;;;;;;;;;8.06;74.87;98485.83;106518;1282;124671;-74
2023/01/12 11:49:55;;;;;;;;;;;;;;;8.08;74.20;98487.88;106532;1282;22512;-74
2023/01/12 11:52:22;;;;;;;;;;;;;;;8.09;73.64;98479.43;106583;1262;22960;-73
2023/01/12 11:54:49;;;;;;;;;;;;;;;8.06;73.46;98480.61;106675;1279;123786;-75
2023/01/12 11:57:24;;;;;;;;;;;;;;;7.97;72.44;98475.16;107303;1273;22504;-74
2023/01/12 12:00:10;;;;;;;;;;;;;;;7.88;72.57;98474.32;106572;1280;22519;-74
2023/01/12 12:02:39;;;;;;;;;;;;;;;7.80;73.64;98473.52;106583;1263;24286;-74
2023/01/12 12:05:12;;;;;;;;;;;;;;;7.76;73.74;98474.20;106505;1280;124752;-74
2023/01/12 12:07:45;;;;;;;;;;;;;;;7.71;73.54;98470.60;106614;1281;22518;-74
2023/01/12 12:10:32;;;;;;;;;;;;;;;7.69;74.21;98469.29;106501;1281;22605;-73
2023/01/12 12:13:19;;;;;;;;;;;;;;;7.69;74.77;98471.74;106007;1274;22559;-74
2023/01/12 12:16:03;;;;;;;;;;;;;;;7.69;74.45;98465.95;106090;1289;25413;-74
2023/01/12 12:18:33;;;;;;;;;;;;;;;7.68;73.83;98465.00;105967;1283;125699;-74
2023/01/12 12:21:08;;;;;;;;;;;;;;;7.67;73.65;98462.73;106044;1288;22521;-74
2023/01/12 12:23:44;;;;;;;;;;;;;;;7.69;73.90;98457.44;106754;1268;124951;-74
2023/01/12 12:26:20;;;;;;;;;;;;;;;7.76;73.53;98451.07;106294;1287;22540;-74
2023/01/12 12:29:03;;;;;;;;;;;;;;;7.83;73.65;98454.86;106239;1287;22511;-74
2023/01/12 12:31:33;;;;;;;;;;;;;;;7.90;73.14;98454.55;106050;1287;124972;-74
2023/01/12 12:34:02;;;;;;;;;;;;;;;7.97;73.00;98451.13;106453;1270;25282;-74
2023/01/12 12:36:29;;;;;;;;;;;;;;;8.05;73.21;98451.25;106084;1281;124836;-74
2023/01/12 12:39:14;;;;;;;;;;;;;;;8.11;72.65;98442.73;106092;1287;22536;-74
2023/01/12 12:47:43;;;;;;;;;;;;;;;8.31;72.23;98440.54;106032;1282;125195;-74
2023/01/12 12:50:20;;;;;;;;;;;;;;;8.35;70.76;98437.56;106221;1281;22512;-74
2023/01/12 12:52:51;;;;;;;;;;;;;;;8.36;69.22;98440.08;106973;1259;23709;-74
2023/01/12 12:55:18;;;;;;;;;;;;;;;8.37;69.03;98438.65;106460;1280;124104;-74
2023/01/12 12:57:57;;;;;;;;;;;;;;;8.38;68.49;98438.61;107093;1275;22517;-74
2023/01/12 13:00:30;;;;;;;;;;;;;;;8.39;68.70;98443.73;107001;1272;123758;-74
2023/01/12 13:02:58;;;;;;;;;;;;;;;8.38;68.08;98440.73;106799;1261;25390;-75
2023/01/12 13:05:40;;;;;;;;;;;;;;;8.37;68.40;98441.36;106660;1282;124812;-74
2023/01/12 13:08:20;;;;;;;;;;;;;;;8.38;68.39;98442.08;106594;1278;25214;-74
2023/01/12 13:10:55;;;;;;;;;;;;;;;8.38;68.65;98441.64;106774;1273;25322;-74
2023/01/12 13:13:24;;;;;;;;;;;;;;;8.39;69.05;98445.35;106501;1263;123734;-74
2023/01/12 13:16:11;;;;;;;;;;;;;;;8.39;68.21;98443.89;106561;1278;22520;-74
2023/01/12 13:18:50;;;;;;;;;;;;;;;8.36;67.90;98445.89;106453;1275;124131;-74
2023/01/12 13:21:25;;;;;;;;;;;;;;;8.35;68.72;98442.98;106544;1280;23290;-76
2023/01/12 13:23:53;;;;;;;;;;;;;;;8.35;68.82;98436.69;106501;1262;124670;-73
2023/01/12 13:26:35;;;;;;;;;;;;;;;8.34;68.45;98435.91;106561;1278;22517;-73
2023/01/12 13:29:20;;;;;;;;;;;;;;;8.32;68.69;98435.01;106886;1278;22570;-75
2023/01/12 13:31:48;;;;;;;;;;;;;;;8.31;68.59;98432.19;106487;1280;22515;-74
2023/01/12 13:34:28;;;;;;;;;;;;;;;8.30;68.71;98436.72;106533;1265;25422;-74
2023/01/12 13:37:18;;;;;;;;;;;;;;;8.29;68.61;98438.73;106860;1283;124582;-74
2023/01/12 13:39:54;;;;;;;;;;;;;;;8.26;68.15;98439.60;106510;1275;189243;-75